Time;durP1;ratioP1;P1;durP2;ratioP2;P2;SDS_P1;SDS_P2;PMS_P1;PMS_P2;Temp;Humidity;BMP_temperature;BMP_pressure;BME280_temperature;BME280_humidity;BME280_pressure;Samples;Min_cycle;Max_cycle;Signal;HPM_P1;HPM_P2
2022/10/13 00:00:48;;;;;;;10.75;6.03;;;;;;;-140.72;100.00;52835.25;5044079;28;20423;-69
2022/10/13 00:03:14;;;;;;;8.88;6.05;;;;;;;-140.72;100.00;52871.78;5054890;28;20059;-69
2022/10/13 00:05:41;;;;;;;7.13;4.97;;;;;;;-140.72;100.00;52843.38;5052459;28;20271;-69
2022/10/13 00:08:07;;;;;;;10.40;5.95;;;;;;;-140.72;100.00;52833.22;5054193;28;20025;-69
2022/10/13 00:10:36;;;;;;;14.02;5.72;;;;;;;-140.72;100.00;52835.25;5052491;28;20039;-69
2022/10/13 00:13:02;;;;;;;8.00;6.38;;;;;;;-140.72;100.00;52873.81;5051990;28;20057;-69
2022/10/13 00:15:27;;;;;;;8.75;5.93;;;;;;;-140.72;100.00;52881.94;5054569;28;20059;-70
2022/10/13 00:17:53;;;;;;;10.45;6.13;;;;;;;-140.72;100.00;52857.59;5055092;28;20431;-69
2022/10/13 00:20:18;;;;;;;9.88;5.90;;;;;;;-140.72;100.00;52859.63;5052496;28;20021;-69
2022/10/13 00:22:44;;;;;;;9.40;6.28;;;;;;;-140.72;100.00;52833.22;5054164;28;20031;-70
2022/10/13 00:25:09;;;;;;;14.18;6.85;;;;;;;-140.72;100.00;52875.84;5051944;28;20430;-69
2022/10/13 00:27:34;;;;;;;8.23;5.78;;;;;;;-140.72;100.00;52849.47;5046885;28;20025;-69
2022/10/13 00:30:00;;;;;;;9.02;5.65;;;;;;;-140.72;100.00;52853.53;5051109;28;20048;-68
2022/10/13 00:32:25;;;;;;;9.07;5.53;;;;;;;-140.72;100.00;52812.94;5053399;28;20082;-68
2022/10/13 00:34:51;;;;;;;8.63;5.72;;;;;;;-140.72;100.00;52869.75;5052236;28;20036;-68
2022/10/13 00:37:16;;;;;;;10.45;5.88;;;;;;;-140.72;100.00;52875.84;5052390;28;20381;-68
2022/10/13 00:39:42;;;;;;;9.75;6.55;;;;;;;-140.72;100.00;52886.00;5053646;28;20031;-69
2022/10/13 00:42:11;;;;;;;12.75;5.80;;;;;;;-140.72;100.00;52863.66;5046047;28;20112;-69
2022/10/13 00:44:56;;;;;;;8.73;6.43;;;;;;;-140.72;100.00;52837.28;5049989;28;20025;-69
2022/10/13 00:47:23;;;;;;;8.68;5.95;;;;;;;-140.72;100.00;52837.28;5036945;28;20038;-69
2022/10/13 00:49:49;;;;;;;11.70;6.78;;;;;;;-140.72;100.00;52863.66;5043017;28;20056;-68
2022/10/13 00:52:16;;;;;;;8.40;6.10;;;;;;;-140.72;100.00;52849.47;5045234;28;20022;-69
2022/10/13 00:54:43;;;;;;;9.07;5.80;;;;;;;-140.72;100.00;52841.34;5041702;28;20087;-69
2022/10/13 00:57:09;;;;;;;7.80;6.20;;;;;;;-140.72;100.00;52825.13;5045332;28;20056;-69
2022/10/13 00:59:37;;;;;;;8.70;6.55;;;;;;;-140.72;100.00;52855.56;5044654;28;20372;-69
2022/10/13 01:02:03;;;;;;;9.32;6.72;;;;;;;-140.72;100.00;52804.81;5050998;28;20716;-69
2022/10/13 01:04:37;;;;;;;13.70;6.38;;;;;;;-140.72;100.00;52833.22;5051576;28;20024;-68
2022/10/13 01:07:03;;;;;;;9.23;5.68;;;;;;;-140.72;100.00;52835.25;5050989;28;20488;-69
2022/10/13 01:09:36;;;;;;;11.95;6.45;;;;;;;-140.72;100.00;52847.44;5049698;28;20340;-69
2022/10/13 01:12:20;;;;;;;9.05;5.70;;;;;;;-140.72;100.00;52847.44;5051185;28;20503;-68
2022/10/13 01:14:57;;;;;;;8.82;5.60;;;;;;;-140.72;100.00;52837.28;5050269;28;20507;-68
2022/10/13 01:17:44;;;;;;;9.57;6.32;;;;;;;-140.72;100.00;52819.03;5038234;28;20087;-69
2022/10/13 01:20:46;;;;;;;8.82;6.18;;;;;;;-140.72;100.00;52845.41;5040585;28;20095;-69
2022/10/13 01:23:47;;;;;;;9.95;6.88;;;;;;;-140.72;100.00;52845.41;5041969;28;20407;-69
2022/10/13 01:26:33;;;;;;;11.65;6.80;;;;;;;-140.72;100.00;52833.22;5051045;28;20436;-68
2022/10/13 01:29:16;;;;;;;6.43;5.78;;;;;;;-140.72;100.00;52804.81;5049749;28;20063;-69
2022/10/13 01:32:06;;;;;;;9.48;6.00;;;;;;;-140.72;100.00;52843.38;5050522;28;20059;-68
2022/10/13 01:34:47;;;;;;;6.55;5.13;;;;;;;-140.72;100.00;52827.16;5039069;28;20357;-69
2022/10/13 01:37:33;;;;;;;9.25;6.47;;;;;;;-140.72;100.00;52829.19;5041782;28;20451;-68
2022/10/13 01:40:14;;;;;;;8.88;6.28;;;;;;;-140.72;100.00;52886.00;5043681;28;20024;-69
2022/10/13 01:42:52;;;;;;;8.20;5.60;;;;;;;-140.72;100.00;52867.72;5037243;28;20020;-69
2022/10/13 01:45:28;;;;;;;8.55;6.80;;;;;;;-140.72;100.00;52837.28;5043210;28;20023;-68
2022/10/13 01:47:58;;;;;;;8.40;6.60;;;;;;;-140.72;100.00;52784.53;5051170;28;20025;-68
2022/10/13 01:50:24;;;;;;;9.25;6.70;;;;;;;-140.72;100.00;52835.25;5037461;28;20392;-69
2022/10/13 01:52:52;;;;;;;7.22;5.93;;;;;;;-140.72;100.00;52827.16;5048379;28;20025;-69
2022/10/13 01:55:17;;;;;;;13.73;6.85;;;;;;;-140.72;100.00;52851.50;5049690;28;20016;-68
2022/10/13 01:57:44;;;;;;;8.30;5.32;;;;;;;-140.72;100.00;52859.63;5050627;28;20031;-69
2022/10/13 02:00:13;;;;;;;12.10;6.65;;;;;;;-140.72;100.00;52835.25;5046953;28;20394;-69
2022/10/13 02:03:03;;;;;;;8.67;6.83;;;;;;;-140.72;100.00;52825.13;5049773;28;20437;-68
2022/10/13 02:05:37;;;;;;;;;;;;;;;-140.72;100.00;52825.13;5037793;28;20033;-69
2022/10/13 02:08:11;;;;;;;10.30;6.57;;;;;;;-140.72;100.00;52857.59;5048387;28;19913;-68
2022/10/13 02:10:49;;;;;;;8.77;6.32;;;;;;;-140.72;100.00;52857.59;5049364;28;20044;-68
2022/10/13 02:13:19;;;;;;;7.20;6.38;;;;;;;-140.72;100.00;52853.53;5046929;28;20525;-68
2022/10/13 02:15:53;;;;;;;11.13;6.55;;;;;;;-140.72;100.00;52821.06;5048609;28;20055;-70
2022/10/13 02:18:25;;;;;;;10.73;7.60;;;;;;;-140.72;100.00;52837.28;5038193;28;20480;-68
2022/10/13 02:20:51;;;;;;;9.20;7.03;;;;;;;-140.72;100.00;52853.53;5047265;28;20051;-68
2022/10/13 02:23:17;;;;;;;11.30;7.63;;;;;;;-140.72;100.00;52869.75;5044408;28;20032;-70
2022/10/13 02:25:45;;;;;;;12.02;6.65;;;;;;;-140.72;100.00;52843.38;5049090;28;20051;-69
2022/10/13 02:28:14;;;;;;;11.15;7.47;;;;;;;-140.72;100.00;52855.56;5040809;28;20017;-68
2022/10/13 02:30:44;;;;;;;11.20;6.65;;;;;;;-140.72;100.00;52853.53;5042575;28;20029;-69
2022/10/13 02:33:10;;;;;;;7.97;5.78;;;;;;;-140.72;100.00;52908.31;5031457;28;20029;-69
2022/10/13 02:35:36;;;;;;;9.18;7.18;;;;;;;-140.72;100.00;52827.16;5045219;28;20040;-69
2022/10/13 02:38:02;;;;;;;8.65;6.97;;;;;;;-140.72;100.00;52819.03;5040008;28;20475;-70
2022/10/13 02:40:27;;;;;;;10.60;6.95;;;;;;;-140.72;100.00;52829.19;5037733;28;20017;-70
2022/10/13 02:42:53;;;;;;;10.35;6.82;;;;;;;-140.72;100.00;52849.47;5040734;28;20036;-69
2022/10/13 02:45:19;;;;;;;11.65;6.97;;;;;;;-140.72;100.00;52871.78;5049133;28;20338;-69
2022/10/13 02:47:45;;;;;;;12.82;7.15;;;;;;;-140.72;100.00;52843.38;5035946;28;20064;-69
2022/10/13 02:50:10;;;;;;;11.63;7.13;;;;;;;-140.72;100.00;52825.13;5049242;28;20017;-69
2022/10/13 02:52:36;;;;;;;13.35;7.40;;;;;;;-140.72;100.00;52847.44;5038981;28;20021;-69
2022/10/13 02:55:03;;;;;;;11.85;7.13;;;;;;;-140.72;100.00;52841.34;5048041;28;20051;-69
2022/10/13 02:57:32;;;;;;;7.38;5.80;;;;;;;-140.72;100.00;52855.56;5047169;28;20044;-69
2022/10/13 02:59:58;;;;;;;10.98;6.68;;;;;;;-140.72;100.00;52849.47;5049298;28;20453;-69
2022/10/13 03:02:25;;;;;;;12.60;7.43;;;;;;;-140.72;100.00;52871.78;5047327;28;20083;-68
2022/10/13 03:04:53;;;;;;;9.35;6.97;;;;;;;-140.72;100.00;52896.16;5048493;28;20348;-68
2022/10/13 03:07:18;;;;;;;12.63;6.53;;;;;;;-140.72;100.00;52873.81;5048312;28;20460;-69
2022/10/13 03:13:05;;;;;;;12.43;8.35;;;;;;;-140.72;100.00;52829.19;5038681;28;20086;-69
2022/10/13 03:15:31;;;;;;;10.40;7.03;;;;;;;-140.72;100.00;52827.16;5043680;28;20557;-68
2022/10/13 03:17:56;;;;;;;9.77;7.55;;;;;;;-140.72;100.00;52855.56;5048101;28;20392;-68
2022/10/13 03:20:21;;;;;;;11.43;7.70;;;;;;;-140.72;100.00;52829.19;5048557;28;20349;-68
2022/10/13 03:22:47;;;;;;;11.48;7.18;;;;;;;-140.72;100.00;52762.22;5048342;28;20021;-68
2022/10/13 03:25:15;;;;;;;11.93;7.07;;;;;;;-140.72;100.00;52847.44;5047776;28;20045;-68
2022/10/13 03:27:40;;;;;;;8.63;7.10;;;;;;;-140.72;100.00;52873.81;5035526;28;20029;-68
2022/10/13 03:30:07;;;;;;;12.23;8.25;;;;;;;-140.72;100.00;52833.22;5040527;28;20028;-68
2022/10/13 03:32:32;;;;;;;11.25;7.60;;;;;;;-140.72;100.00;52847.44;5043238;28;20376;-69
2022/10/13 03:35:00;;;;;;;10.20;7.72;;;;;;;-140.72;100.00;52877.88;5048548;28;20021;-69
2022/10/13 03:37:29;;;;;;;9.32;7.13;;;;;;;-140.72;100.00;52829.19;5047847;28;20025;-68
2022/10/13 03:39:55;;;;;;;14.80;7.97;;;;;;;-140.72;100.00;52849.47;5040933;28;20047;-68
2022/10/13 03:42:20;;;;;;;14.55;8.15;;;;;;;-140.72;100.00;52819.03;5045394;28;20400;-68
2022/10/13 03:44:47;;;;;;;12.40;8.95;;;;;;;-140.72;100.00;52851.50;5034287;28;20032;-68
2022/10/13 03:47:13;;;;;;;15.15;8.40;;;;;;;-140.72;100.00;52806.84;5047284;28;20067;-69
2022/10/13 03:49:38;;;;;;;14.95;7.53;;;;;;;-140.72;100.00;52825.13;5042168;28;20371;-69
2022/10/13 03:52:04;;;;;;;10.13;8.38;;;;;;;-140.72;100.00;52853.53;5029129;28;20060;-68
2022/10/13 03:54:30;;;;;;;12.40;7.93;;;;;;;-140.72;100.00;52827.16;5028451;28;20382;-69
2022/10/13 03:56:55;;;;;;;12.10;8.18;;;;;;;-140.72;100.00;52837.28;5042807;28;20017;-68
2022/10/13 03:59:22;;;;;;;12.05;8.77;;;;;;;-140.72;100.00;52843.38;5035918;28;20024;-69
2022/10/13 04:01:47;;;;;;;10.27;7.50;;;;;;;-140.72;100.00;52810.91;5047295;28;20506;-69
2022/10/13 04:04:13;;;;;;;11.80;7.80;;;;;;;-140.72;100.00;52819.03;5047349;28;20116;-69
2022/10/13 04:06:38;;;;;;;10.05;7.97;;;;;;;-140.72;100.00;52810.91;5034376;28;20112;-70
2022/10/13 04:09:04;;;;;;;8.50;6.68;;;;;;;-140.72;100.00;52841.34;5040757;28;20033;-69
2022/10/13 04:11:29;;;;;;;11.00;8.05;;;;;;;-140.72;100.00;52853.53;5042011;28;20017;-70
2022/10/13 04:13:56;;;;;;;12.80;8.02;;;;;;;-140.72;100.00;52831.19;5035571;28;20466;-69
2022/10/13 04:16:25;;;;;;;9.80;6.47;;;;;;;-140.72;100.00;52804.81;5046157;28;20077;-70
2022/10/13 04:18:59;;;;;;;14.27;8.60;;;;;;;-140.72;100.00;52869.75;5052248;28;20393;-69
2022/10/13 04:21:26;;;;;;;11.80;7.38;;;;;;;-140.72;100.00;52843.38;5045907;28;20040;-68
2022/10/13 04:23:55;;;;;;;16.40;8.82;;;;;;;-140.72;100.00;52861.66;5041754;28;20544;-69
2022/10/13 04:26:22;;;;;;;14.48;7.97;;;;;;;-140.72;100.00;52825.13;5045764;28;20496;-68
2022/10/13 04:28:49;;;;;;;12.48;8.52;;;;;;;-140.72;100.00;52851.50;5044711;28;20029;-67
2022/10/13 04:31:15;;;;;;;12.52;7.78;;;;;;;-140.72;100.00;52814.97;5052030;28;20040;-68
2022/10/13 04:33:41;;;;;;;10.45;7.25;;;;;;;-140.72;100.00;52845.41;5052305;28;20369;-70
2022/10/13 04:36:09;;;;;;;13.82;8.07;;;;;;;-140.72;100.00;52839.31;5052068;28;20025;-71
2022/10/13 04:38:34;;;;;;;11.27;7.93;;;;;;;-140.72;100.00;52821.06;5045130;28;20076;-70
2022/10/13 04:41:07;;;;;;;15.55;8.07;;;;;;;-140.72;100.00;52853.53;5048510;28;20049;-71
2022/10/13 04:43:34;;;;;;;11.02;8.13;;;;;;;-140.72;100.00;52861.66;5040477;28;20155;-70
2022/10/13 04:46:08;;;;;;;10.48;7.93;;;;;;;-140.72;100.00;52810.91;5049139;28;20029;-70
2022/10/13 04:48:34;;;;;;;11.93;8.18;;;;;;;-140.72;100.00;52855.56;5044014;28;20032;-70
2022/10/13 04:51:11;;;;;;;13.07;7.32;;;;;;;-140.72;100.00;52825.13;5037958;28;20032;-69
2022/10/13 04:53:38;;;;;;;10.45;7.13;;;;;;;-140.72;100.00;52829.19;5051314;28;20436;-71
2022/10/13 04:56:07;;;;;;;9.43;6.93;;;;;;;-140.72;100.00;52847.44;5041484;28;20040;-70
2022/10/13 04:58:33;;;;;;;16.38;9.57;;;;;;;-140.72;100.00;52841.34;5043961;28;20035;-69
2022/10/13 05:00:58;;;;;;;11.45;7.57;;;;;;;-140.72;100.00;52853.53;5044147;28;20021;-73
2022/10/13 05:03:24;;;;;;;12.00;7.75;;;;;;;-140.72;100.00;52792.66;5049338;28;20051;-70
2022/10/13 05:05:52;;;;;;;12.13;8.02;;;;;;;-140.72;100.00;52859.63;5054280;28;20024;-70
2022/10/13 05:08:17;;;;;;;9.85;6.82;;;;;;;-140.72;100.00;52833.22;5053672;28;20376;-69
2022/10/13 05:10:52;;;;;;;13.40;7.82;;;;;;;-140.72;100.00;52853.53;5054053;28;20020;-69
2022/10/13 05:13:17;;;;;;;13.18;7.85;;;;;;;-140.72;100.00;52835.25;5052884;28;20134;-70
2022/10/13 05:15:42;;;;;;;10.45;6.65;;;;;;;-140.72;100.00;52810.91;5043579;28;20156;-68
2022/10/13 05:18:08;;;;;;;10.88;6.97;;;;;;;-140.72;100.00;52831.19;5044026;28;20033;-69
2022/10/13 05:20:33;;;;;;;11.73;7.15;;;;;;;-140.72;100.00;52853.53;5051857;28;20189;-69
2022/10/13 05:22:59;;;;;;;10.80;6.22;;;;;;;-140.72;100.00;52843.38;5043855;28;20041;-70
2022/10/13 05:25:24;;;;;;;13.48;6.68;;;;;;;-140.72;100.00;52827.16;5043916;28;20037;-70
2022/10/13 05:27:49;;;;;;;11.65;6.20;;;;;;;-140.72;100.00;52857.59;5049698;28;20072;-70
2022/10/13 05:30:15;;;;;;;7.75;5.40;;;;;;;-140.72;100.00;52873.81;5041732;28;20207;-69
2022/10/13 05:32:40;;;;;;;12.32;7.35;;;;;;;-140.72;100.00;52843.38;5046609;28;20043;-70
2022/10/13 05:35:06;;;;;;;10.02;8.00;;;;;;;-140.72;100.00;52819.03;5037873;28;20021;-69
2022/10/13 05:37:31;;;;;;;9.93;7.20;;;;;;;-140.72;100.00;52806.84;5043786;28;20029;-69
2022/10/13 05:39:57;;;;;;;13.35;7.35;;;;;;;-140.72;100.00;52845.41;5045239;28;20079;-70
2022/10/13 05:42:22;;;;;;;14.60;7.82;;;;;;;-140.72;100.00;52865.69;5044126;28;20362;-70
2022/10/13 05:44:47;;;;;;;10.48;8.10;;;;;;;-140.72;100.00;52863.66;5042796;28;20023;-69
2022/10/13 05:47:13;;;;;;;14.13;8.13;;;;;;;-140.72;100.00;52849.47;5041401;28;20458;-69
2022/10/13 05:49:38;;;;;;;10.23;7.10;;;;;;;-140.72;100.00;52865.69;5050906;28;20028;-70
2022/10/13 05:52:09;;;;;;;10.57;8.00;;;;;;;-140.72;100.00;52837.28;5050032;28;20130;-69
2022/10/13 05:54:49;;;;;;;10.10;6.60;;;;;;;-140.72;100.00;52837.28;5050502;28;20031;-68
2022/10/13 05:57:40;;;;;;;9.32;7.80;;;;;;;-140.72;100.00;52845.41;5049883;28;20536;-68
2022/10/13 06:00:13;;;;;;;11.93;7.75;;;;;;;-140.72;100.00;52821.06;5048177;28;20036;-69
2022/10/13 06:02:48;;;;;;;9.10;6.68;;;;;;;-140.72;100.00;52837.28;5042842;28;20454;-70
2022/10/13 06:05:17;;;;;;;11.13;7.50;;;;;;;-140.72;100.00;52847.44;5046252;28;20357;-70
2022/10/13 06:07:44;;;;;;;12.50;8.73;;;;;;;-140.72;100.00;52849.47;5050344;28;20063;-71
2022/10/13 06:10:10;;;;;;;14.10;8.65;;;;;;;-140.72;100.00;52829.19;5046172;28;20506;-72
2022/10/13 06:12:37;;;;;;;15.15;8.63;;;;;;;-140.72;100.00;52802.78;5030620;28;20017;-70
2022/10/13 06:15:02;;;;;;;11.27;7.75;;;;;;;-140.72;100.00;52829.19;5034399;28;20024;-70
2022/10/13 06:17:28;;;;;;;13.27;8.82;;;;;;;-140.72;100.00;52861.66;5038619;28;20029;-70
2022/10/13 06:19:53;;;;;;;17.70;8.40;;;;;;;-140.72;100.00;52788.59;5033897;28;20078;-71
2022/10/13 06:22:20;;;;;;;14.30;8.95;;;;;;;-140.72;100.00;52814.97;5044014;28;20308;-70
2022/10/13 06:24:46;;;;;;;13.77;9.20;;;;;;;-140.72;100.00;52841.34;5037402;28;20017;-70
2022/10/13 06:27:11;;;;;;;12.30;8.88;;;;;;;-140.72;100.00;52853.53;5039528;28;20029;-71
2022/10/13 06:29:36;;;;;;;11.68;8.55;;;;;;;-140.72;100.00;52859.63;5041801;28;20050;-70
2022/10/13 06:32:03;;;;;;;13.57;9.27;;;;;;;-140.72;100.00;52847.44;5032042;28;20019;-70
2022/10/13 06:34:28;;;;;;;13.60;9.02;;;;;;;-140.72;100.00;52825.13;5046166;28;20447;-70
2022/10/13 06:36:53;;;;;;;12.48;9.73;;;;;;;-140.72;100.00;52829.19;5049186;28;20120;-71
2022/10/13 06:39:19;;;;;;;16.90;9.93;;;;;;;-140.72;100.00;52804.81;5029936;28;20280;-70
2022/10/13 06:41:45;;;;;;;15.20;9.90;;;;;;;-140.72;100.00;52823.09;5040339;28;20097;-70
2022/10/13 06:44:10;;;;;;;16.55;10.52;;;;;;;-140.72;100.00;52800.75;5041170;28;20433;-70
2022/10/13 06:46:36;;;;;;;12.90;9.95;;;;;;;-140.72;100.00;52841.34;5050035;28;20033;-71
2022/10/13 06:49:01;;;;;;;16.70;10.80;;;;;;;-140.72;100.00;52819.03;5047540;28;20027;-71
2022/10/13 06:51:27;;;;;;;13.93;10.55;;;;;;;-140.72;100.00;52835.25;5049452;28;20384;-70
2022/10/13 06:53:55;;;;;;;19.08;11.02;;;;;;;-140.72;100.00;52825.13;5034750;28;20025;-71
2022/10/13 06:56:20;;;;;;;12.65;10.43;;;;;;;-140.72;100.00;52845.41;5039245;28;20025;-70
2022/10/13 06:58:46;;;;;;;15.00;11.02;;;;;;;-140.72;100.00;52823.09;5034785;28;20101;-71
2022/10/13 07:01:12;;;;;;;14.35;11.27;;;;;;;-140.72;100.00;52819.03;5029578;28;20025;-70
2022/10/13 07:03:37;;;;;;;15.85;10.93;;;;;;;-140.72;100.00;52827.16;5046039;28;20063;-71
2022/10/13 07:06:04;;;;;;;14.40;10.90;;;;;;;-140.72;100.00;52841.34;5039992;28;20044;-71
2022/10/13 07:08:31;;;;;;;12.43;10.60;;;;;;;-140.72;100.00;52817.00;5030697;28;20104;-70
2022/10/13 07:10:57;;;;;;;13.73;10.45;;;;;;;-140.72;100.00;52831.19;5039762;28;20017;-71
2022/10/13 07:13:22;;;;;;;18.77;11.60;;;;;;;-140.72;100.00;52821.06;5033966;28;20075;-70
2022/10/13 07:15:47;;;;;;;13.00;10.20;;;;;;;-140.72;100.00;52841.34;5030379;28;20116;-70
2022/10/13 07:18:13;;;;;;;14.90;10.65;;;;;;;-140.72;100.00;52859.63;5034193;28;20063;-70
2022/10/13 07:20:38;;;;;;;14.13;9.55;;;;;;;-140.72;100.00;52837.28;5049193;28;20016;-71
2022/10/13 07:23:04;;;;;;;13.07;10.02;;;;;;;-140.72;100.00;52782.50;5032848;28;20084;-70
2022/10/13 07:25:29;;;;;;;12.82;9.13;;;;;;;-140.72;100.00;52812.94;5039946;28;20044;-70
2022/10/13 07:27:54;;;;;;;13.52;10.32;;;;;;;-140.72;100.00;52792.66;5045325;28;20021;-72
2022/10/13 07:30:20;;;;;;;16.25;9.15;;;;;;;-140.72;100.00;52823.09;5039950;28;20021;-71
2022/10/13 07:32:46;;;;;;;12.60;9.68;;;;;;;-140.72;100.00;52792.66;5042874;28;20041;-70
2022/10/13 07:35:11;;;;;;;15.45;10.48;;;;;;;-140.72;100.00;52831.19;5030226;28;20119;-71
2022/10/13 07:37:37;;;;;;;12.32;9.80;;;;;;;-140.72;100.00;52837.28;5043079;28;20057;-70
2022/10/13 07:40:04;;;;;;;13.98;8.88;;;;;;;-140.72;100.00;52806.84;5042021;28;20037;-71
2022/10/13 07:42:30;;;;;;;14.80;10.27;;;;;;;-140.72;100.00;52802.78;5035259;28;20034;-69
2022/10/13 07:44:56;;;;;;;13.60;8.93;;;;;;;-140.72;100.00;52833.22;5029267;28;20397;-70
2022/10/13 07:47:21;;;;;;;12.25;9.38;;;;;;;-140.72;100.00;52829.19;5029241;28;20052;-69
2022/10/13 07:49:47;;;;;;;12.98;9.63;;;;;;;-140.72;100.00;52810.91;5048130;28;20115;-69
2022/10/13 07:52:12;;;;;;;12.95;9.05;;;;;;;-140.72;100.00;52861.66;5050229;28;20068;-69
2022/10/13 07:54:37;;;;;;;13.20;8.98;;;;;;;-140.72;100.00;52831.19;5034988;28;20041;-69
2022/10/13 07:57:03;;;;;;;11.90;9.25;;;;;;;-140.72;100.00;52831.19;5047002;28;20025;-69
2022/10/13 07:59:30;;;;;;;13.43;9.52;;;;;;;-140.72;100.00;52812.94;5033034;28;20025;-69
2022/10/13 08:01:56;;;;;;;14.05;8.30;;;;;;;-140.72;100.00;52812.94;5047602;28;20029;-69
2022/10/13 08:04:21;;;;;;;13.88;8.35;;;;;;;-140.72;100.00;52794.69;5042880;28;20511;-69
2022/10/13 08:06:46;;;;;;;10.32;8.45;;;;;;;-140.72;100.00;52790.63;5047704;28;20027;-70
2022/10/13 08:09:12;;;;;;;9.02;7.45;;;;;;;-140.72;100.00;52829.19;5052696;28;20029;-70
2022/10/13 08:11:37;;;;;;;12.05;7.25;;;;;;;-140.72;100.00;52814.97;5049269;28;20012;-71
2022/10/13 08:14:03;;;;;;;9.77;6.93;;;;;;;-140.72;100.00;52817.00;5041294;28;20029;-70
2022/10/13 08:16:29;;;;;;;9.65;7.20;;;;;;;-140.72;100.00;52794.69;5049072;28;20369;-70
2022/10/13 08:18:56;;;;;;;10.68;7.07;;;;;;;-140.72;100.00;52800.75;5042423;28;20017;-71
2022/10/13 08:21:22;;;;;;;10.90;7.13;;;;;;;-140.72;100.00;52810.91;5051725;28;20112;-70
2022/10/13 08:23:47;;;;;;;12.32;7.50;;;;;;;-140.72;100.00;52843.38;5052883;28;20074;-69
2022/10/13 08:26:23;;;;;;;10.82;7.47;;;;;;;-140.72;100.00;52833.22;5047614;28;20432;-69
2022/10/13 08:28:48;;;;;;;10.95;6.78;;;;;;;-140.72;100.00;52819.03;5033447;28;20060;-69
2022/10/13 08:31:14;;;;;;;12.05;7.40;;;;;;;-140.72;100.00;52806.84;5045532;28;20470;-69
2022/10/13 08:33:40;;;;;;;9.95;7.03;;;;;;;-140.72;100.00;52792.66;5032942;28;20373;-70
2022/10/13 08:36:09;;;;;;;9.43;6.20;;;;;;;-140.72;100.00;52794.69;5038726;28;20048;-69
2022/10/13 08:38:34;;;;;;;7.43;6.28;;;;;;;-140.72;100.00;52810.91;5040418;28;20159;-69
2022/10/13 08:41:00;;;;;;;11.23;6.28;;;;;;;-140.72;100.00;52804.81;5037138;28;20024;-69
2022/10/13 08:43:26;;;;;;;8.32;6.45;;;;;;;-140.72;100.00;52794.69;5040334;28;20028;-69
2022/10/13 08:45:57;;;;;;;10.25;7.53;;;;;;;-140.72;100.00;52804.81;5052030;28;20017;-70
2022/10/13 08:48:36;;;;;;;9.40;7.35;;;;;;;-140.72;100.00;52825.13;5041343;28;20029;-70
2022/10/13 08:51:06;;;;;;;12.05;7.25;;;;;;;-140.72;100.00;52831.19;5032473;28;20413;-70
2022/10/13 08:53:34;;;;;;;8.30;7.40;;;;;;;-140.72;100.00;52817.00;5044686;28;20108;-69
2022/10/13 08:56:20;;;;;;;10.15;7.78;;;;;;;-140.72;100.00;52794.69;5045489;28;20339;-70
2022/10/13 08:58:47;;;;;;;13.40;8.65;;;;;;;-140.72;100.00;52778.44;5035651;28;20036;-70
2022/10/13 09:01:23;;;;;;;8.18;6.55;;;;;;;-140.72;100.00;52780.47;5051301;28;20025;-70
2022/10/13 09:03:52;;;;;;;9.98;7.45;;;;;;;-140.72;100.00;52814.97;5050724;28;20032;-70
2022/10/13 09:06:20;;;;;;;9.70;8.52;;;;;;;-140.72;100.00;52786.56;5051535;28;20426;-69
2022/10/13 09:08:52;;;;;;;12.98;7.65;;;;;;;-140.72;100.00;52774.38;5038822;28;20358;-70
2022/10/13 09:11:17;;;;;;;11.45;8.05;;;;;;;-140.72;100.00;52786.56;5037036;28;20095;-69
2022/10/13 09:13:43;;;;;;;13.80;7.80;;;;;;;-140.72;100.00;52788.59;5039879;28;20025;-69
2022/10/13 09:16:08;;;;;;;11.65;7.60;;;;;;;-140.72;100.00;52776.41;5050595;28;20078;-69
2022/10/13 09:18:34;;;;;;;13.50;7.55;;;;;;;-140.72;100.00;52766.25;5051336;28;20025;-69
2022/10/13 09:21:23;;;;;;;10.43;6.97;;;;;;;-140.72;100.00;52800.75;5037719;28;20529;-70
2022/10/13 09:23:50;;;;;;;9.13;5.93;;;;;;;-140.72;100.00;52752.06;5051344;28;20051;-70
2022/10/13 09:26:22;;;;;;;9.70;6.80;;;;;;;-140.72;100.00;52760.19;5049882;28;20781;-70
2022/10/13 09:28:48;;;;;;;10.98;6.80;;;;;;;-140.72;100.00;52806.84;5039297;28;20025;-70
2022/10/13 09:31:16;;;;;;;7.60;5.80;;;;;;;-140.72;100.00;52772.34;5044610;28;20164;-69
2022/10/13 09:33:44;;;;;;;9.25;5.47;;;;;;;-140.72;100.00;52762.22;5044485;28;20029;-70
2022/10/13 09:36:12;;;;;;;13.43;6.00;;;;;;;-140.72;100.00;52792.66;5044001;28;20037;-70
2022/10/13 09:38:39;;;;;;;8.65;6.03;;;;;;;-140.72;100.00;52814.97;5044550;28;20029;-70
2022/10/13 09:41:10;;;;;;;11.68;5.47;;;;;;;-140.72;100.00;52768.28;5036269;28;20446;-70
2022/10/13 09:43:45;;;;;;;8.57;4.80;;;;;;;-140.72;100.00;52770.31;5040500;28;20029;-70
2022/10/13 09:46:30;;;;;;;7.68;4.47;;;;;;;-140.72;100.00;52764.25;5033253;28;20025;-70
2022/10/13 09:49:05;;;;;;;11.63;5.82;;;;;;;-140.72;100.00;52780.47;5046135;28;20063;-69
2022/10/13 09:51:43;;;;;;;8.48;5.18;;;;;;;-140.72;100.00;52741.91;5050594;28;20055;-69
2022/10/13 09:54:37;;;;;;;8.75;4.95;;;;;;;-140.72;100.00;52762.22;5037515;28;20079;-70
2022/10/13 09:57:10;;;;;;;9.90;4.25;;;;;;;-140.72;100.00;52748.00;5037732;28;20022;-70
2022/10/13 09:59:39;;;;;;;6.22;4.35;;;;;;;-140.72;100.00;52739.88;5051328;28;20024;-70
2022/10/13 10:02:37;;;;;;;7.30;5.10;;;;;;;-140.72;100.00;52743.94;5037541;28;20031;-70
2022/10/13 10:05:39;;;;;;;7.80;4.85;;;;;;;-140.72;100.00;52729.75;5042952;28;20092;-69
2022/10/13 10:08:20;;;;;;;10.63;5.05;;;;;;;-140.72;100.00;52760.19;5037439;28;20064;-71
2022/10/13 10:10:46;;;;;;;6.57;4.43;;;;;;;-140.72;100.00;52709.44;5040279;28;20023;-71
2022/10/13 10:13:13;;;;;;;8.52;5.18;;;;;;;-140.72;100.00;52723.66;5049849;28;20059;-70
2022/10/13 10:15:53;;;;;;;7.88;4.35;;;;;;;-140.72;100.00;52770.31;5049671;28;20025;-69
2022/10/13 10:18:23;;;;;;;;;;;;;;;-140.72;100.00;52687.13;5049303;28;20063;-69
2022/10/13 10:20:58;;;;;;;12.55;5.13;;;;;;;-140.72;100.00;52699.31;5050621;28;19905;-70
2022/10/13 10:23:45;;;;;;;8.52;4.90;;;;;;;-140.72;100.00;52697.28;5038023;28;20070;-68
2022/10/13 10:26:27;;;;;;;7.75;4.50;;;;;;;-140.72;100.00;52693.22;5049425;28;20068;-69
2022/10/13 10:29:14;;;;;;;8.25;4.78;;;;;;;-140.72;100.00;52681.03;5050453;28;20021;-69
2022/10/13 10:31:51;;;;;;;6.25;4.38;;;;;;;-140.72;100.00;52695.25;5030733;28;20029;-69
2022/10/13 10:34:19;;;;;;;5.68;3.70;;;;;;;-140.72;100.00;52723.66;5034110;28;20348;-69
2022/10/13 10:37:04;;;;;;;6.25;3.90;;;;;;;-140.72;100.00;52741.91;5039424;28;20052;-69
2022/10/13 10:39:45;;;;;;;7.88;3.35;;;;;;;-140.72;100.00;52735.81;5036801;28;20507;-69
2022/10/13 10:42:31;;;;;;;6.90;4.03;;;;;;;-140.72;100.00;52727.72;5038244;28;20469;-69
2022/10/13 10:45:00;;;;;;;5.80;3.63;;;;;;;-140.72;100.00;52723.66;5030444;28;20021;-70
2022/10/13 10:47:34;;;;;;;5.05;3.47;;;;;;;-140.72;100.00;52748.00;5043879;28;20033;-70
2022/10/13 10:50:03;;;;;;;4.93;3.08;;;;;;;-140.72;100.00;52723.66;5039700;28;20103;-70
2022/10/13 10:52:35;;;;;;;8.07;4.25;;;;;;;-140.72;100.00;52731.75;5034225;28;20108;-69
2022/10/13 10:55:42;;;;;;;7.00;3.13;;;;;;;-140.72;100.00;52705.38;5049390;28;20069;-69
2022/10/13 10:58:26;;;;;;;8.38;4.03;;;;;;;-140.72;100.00;52739.88;5049585;28;20043;-71
2022/10/13 11:01:17;;;;;;;6.70;3.67;;;;;;;-140.72;100.00;52723.66;5049426;28;20042;-70
2022/10/13 11:03:56;;;;;;;6.85;3.45;;;;;;;-140.72;100.00;52672.91;5035523;28;20017;-70
2022/10/13 11:06:36;;;;;;;14.73;5.15;;;;;;;-140.72;100.00;52737.84;5049696;28;20108;-71
2022/10/13 11:09:03;;;;;;;6.05;3.90;;;;;;;-140.72;100.00;52693.22;5037333;28;20099;-69
2022/10/13 11:11:30;;;;;;;6.55;3.63;;;;;;;-140.72;100.00;52697.28;5049122;28;20034;-69
2022/10/13 11:13:59;;;;;;;9.35;5.10;;;;;;;-140.72;100.00;52683.06;5049807;28;20080;-71
2022/10/13 11:16:31;;;;;;;9.03;4.53;;;;;;;-140.72;100.00;52709.44;5047193;28;20017;-69
2022/10/13 11:19:05;;;;;;;6.75;3.80;;;;;;;-140.72;100.00;52729.75;5050026;28;20028;-70